Sakaide Maru — 3EYR6 — position and weather

sailwx.info

Track history (hours):
 
Tides and Currents Weather Stations Pressure Air Temp Water Temp Dewpoint Dewpoint Depression Visibility Wind Speed Wind Dir Waves Ship Positions

Sakaide Maru

Last reported at 2016-Feb-08 09:25 UTC. Time now 2016-Feb-12 18:17 UTC.
Position N 35°05' E 140°42'.

Length 255 m; draft 7.8 m.

Type: Ship. MMSI: 354898000.

Date/timePositionNaut miles runAvg speedWind from/ knotsBaromVisibWave heightAir tempDewpointWater temp
2016-Feb-08 09:25N 35°05' E 140°42'3214.8
2016-Feb-08 07:16N 34°40' E 140°18'26711.2
2016-Feb-07 07:30N 34°01' E 134°58'1212.8
2016-Feb-07 06:33N 34°13' E 134°58'1413.8
2016-Feb-07 05:33N 34°26' E 135°02'9 9.4
2016-Feb-07 04:33N 34°36' E 135°03'1413.5
2016-Feb-07 03:33N 34°33' E 134°47'  
2016-Feb-03 01:33N 34°37' E 134°58'8 8.2
2016-Feb-03 00:33N 34°35' E 135°08'8 8.1
2016-Feb-02 23:33N 34°27' E 135°05'1111.3
2016-Feb-02 22:33N 34°17' E 134°59'9 9.2
2016-Feb-02 21:33N 34°08' E 134°59'6 6.0
2016-Feb-02 20:33N 34°02' E 134°59'8 7.7
2016-Feb-02 19:31N 33°54' E 134°58'  
Track history (hours):
 
Tides and Currents Weather Stations Pressure Air Temp Water Temp Dewpoint Dewpoint Depression Visibility Wind Speed Wind Dir Waves Ship Positions

Sakaide Maru

Last reported at 2016-Feb-08 09:25 UTC. Time now 2016-Feb-12 18:17 UTC.
Position N 35°05' E 140°42'.

Length 255 m; draft 7.8 m.

Type: Ship. MMSI: 354898000.

Date/timePositionNaut miles runAvg speedWind from/ knotsBaromVisibWave heightAir tempDewpointWater temp
2016-Feb-08 09:25N 35°05' E 140°42'3214.8
2016-Feb-08 07:16N 34°40' E 140°18'26711.2
2016-Feb-07 07:30N 34°01' E 134°58'1212.8
2016-Feb-07 06:33N 34°13' E 134°58'1413.8
2016-Feb-07 05:33N 34°26' E 135°02'9 9.4
2016-Feb-07 04:33N 34°36' E 135°03'1413.5
2016-Feb-07 03:33N 34°33' E 134°47'  
2016-Feb-03 01:33N 34°37' E 134°58'8 8.2
2016-Feb-03 00:33N 34°35' E 135°08'8 8.1
2016-Feb-02 23:33N 34°27' E 135°05'1111.3
2016-Feb-02 22:33N 34°17' E 134°59'9 9.2
2016-Feb-02 21:33N 34°08' E 134°59'6 6.0
2016-Feb-02 20:33N 34°02' E 134°59'8 7.7
2016-Feb-02 19:31N 33°54' E 134°58'  

Dump ship's entire track history